Airport View

Enter AWOS ICAO identifier for current METAR.

ex. KFNL

KVRB 262253Z 00000KT 10SM CLR 16/08 A3003 RMK AO2 SLP168 T01560083

26 Jan 2020 23:25

Phone: 772-978-9535

Other Area AWOS: KMLB - KFPR - KSUA - KOBE

TAF KVRB 261721Z 2618/2718 36007KT P6SM SCT250 FM270000 36004KT P6SM BKN250 FM270600 VRB03KT P6SM OVC100